createdAt,value
2023-03-29T00:02:30.386Z,4.20
2023-03-29T00:05:01.846Z,4.03
2023-03-29T00:07:30.107Z,3.83
2023-03-29T00:09:56.861Z,3.50
2023-03-29T00:12:23.560Z,3.60
2023-03-29T00:14:50.328Z,3.53
2023-03-29T00:17:17.011Z,4.03
2023-03-29T00:19:45.364Z,4.30
2023-03-29T00:22:12.154Z,3.97
2023-03-29T00:24:38.964Z,3.88
2023-03-29T00:27:05.732Z,3.60
2023-03-29T00:29:32.882Z,4.15
2023-03-29T00:31:59.809Z,4.55
2023-03-29T00:34:30.963Z,5.40
2023-03-29T00:36:58.757Z,4.95
2023-03-29T00:39:26.440Z,4.05
2023-03-29T00:41:53.348Z,4.38
2023-03-29T00:44:57.517Z,4.53
2023-03-29T00:47:27.394Z,4.45
2023-03-29T00:49:55.281Z,4.85
2023-03-29T00:52:22.635Z,3.67
2023-03-29T00:54:52.986Z,4.00
2023-03-29T00:57:20.850Z,4.80
2023-03-29T00:59:49.882Z,4.80
2023-03-29T01:02:22.047Z,4.30
2023-03-29T01:04:59.249Z,4.47
2023-03-29T01:07:40.325Z,5.40
2023-03-29T01:10:19.071Z,4.50
2023-03-29T01:13:02.453Z,4.78
2023-03-29T01:15:29.781Z,4.03
2023-03-29T01:17:58.363Z,4.38
2023-03-29T01:20:50.898Z,4.32
2023-03-29T01:23:34.203Z,4.15
2023-03-29T01:26:31.166Z,4.82
2023-03-29T01:29:03.317Z,4.97
2023-03-29T01:31:38.216Z,4.97
2023-03-29T01:34:14.836Z,4.78
2023-03-29T01:37:10.351Z,5.80
2023-03-29T01:39:37.135Z,4.93
2023-03-29T01:42:16.066Z,5.85
2023-03-29T01:44:49.840Z,6.03
2023-03-29T01:47:44.187Z,6.43
2023-03-29T01:50:28.972Z,6.72
2023-03-29T01:53:30.909Z,7.05
2023-03-29T01:56:04.493Z,7.15
2023-03-29T01:58:36.562Z,9.15
2023-03-29T02:01:09.838Z,8.27
2023-03-29T02:03:42.135Z,8.63
2023-03-29T02:06:11.891Z,9.50
2023-03-29T02:08:41.434Z,8.80
2023-03-29T02:11:08.867Z,9.57
2023-03-29T02:13:36.393Z,10.27
2023-03-29T02:16:13.547Z,11.10
2023-03-29T02:18:42.717Z,10.77
2023-03-29T02:21:11.547Z,12.02
2023-03-29T02:23:45.402Z,11.90
2023-03-29T02:26:14.352Z,10.98
2023-03-29T02:28:42.016Z,12.98
2023-03-29T02:31:23.721Z,11.40
2023-03-29T02:34:07.710Z,12.68
2023-03-29T02:36:43.976Z,13.23
2023-03-29T02:39:15.626Z,12.07
2023-03-29T02:41:45.806Z,12.70
2023-03-29T02:44:16.914Z,13.30
2023-03-29T02:46:44.348Z,13.15
2023-03-29T02:49:13.049Z,13.90
2023-03-29T02:51:39.739Z,13.82
2023-03-29T02:54:13.147Z,13.77
2023-03-29T02:56:44.849Z,13.18
2023-03-29T02:59:12.530Z,11.68
2023-03-29T03:01:44.711Z,12.10
2023-03-29T03:04:12.320Z,12.38
2023-03-29T03:06:39.403Z,11.93
2023-03-29T03:09:06.765Z,12.68
2023-03-29T03:11:34.291Z,12.25
2023-03-29T03:14:01.067Z,12.52
2023-03-29T03:16:28.026Z,10.75
2023-03-29T03:18:55.632Z,12.82
2023-03-29T03:21:23.036Z,12.20
2023-03-29T03:23:50.030Z,12.20
2023-03-29T03:26:18.204Z,11.43
2023-03-29T03:28:48.273Z,11.68
2023-03-29T03:31:15.076Z,12.82
2023-03-29T03:33:41.938Z,12.05
2023-03-29T03:36:10.760Z,12.75
2023-03-29T03:38:38.458Z,12.45
2023-03-29T03:41:07.000Z,12.60
2023-03-29T03:43:34.659Z,11.90
2023-03-29T03:46:01.904Z,13.32
2023-03-29T03:48:28.687Z,12.93
2023-03-29T03:50:58.089Z,11.82
2023-03-29T03:53:26.235Z,11.60
2023-03-29T03:55:55.936Z,11.73
2023-03-29T03:58:22.993Z,11.82
2023-03-29T04:00:50.927Z,10.93
2023-03-29T04:03:18.745Z,12.23
2023-03-29T04:05:46.729Z,13.45
2023-03-29T04:08:14.868Z,11.82
2023-03-29T04:10:42.033Z,13.50
2023-03-29T04:13:08.723Z,12.32
2023-03-29T04:15:38.701Z,12.10
2023-03-29T04:18:08.896Z,11.05
2023-03-29T04:20:35.928Z,12.68
2023-03-29T04:23:02.597Z,12.20
2023-03-29T04:25:29.703Z,11.73
2023-03-29T04:27:56.697Z,13.65
2023-03-29T04:30:23.647Z,11.98
2023-03-29T04:32:50.463Z,11.60
2023-03-29T04:35:17.870Z,12.63
2023-03-29T04:37:44.591Z,13.40
2023-03-29T04:40:14.961Z,10.70
2023-03-29T04:42:45.836Z,11.18
2023-03-29T04:45:17.926Z,12.48
2023-03-29T04:47:45.704Z,11.25
2023-03-29T04:50:13.759Z,13.30
2023-03-29T04:52:40.882Z,11.65
2023-03-29T04:55:08.527Z,14.00
2023-03-29T04:57:35.261Z,13.00
2023-03-29T05:00:02.179Z,12.32
2023-03-29T05:02:32.209Z,12.35
2023-03-29T05:04:59.378Z,11.07
2023-03-29T05:07:26.018Z,12.07
2023-03-29T05:09:53.375Z,12.20
2023-03-29T05:12:20.180Z,13.13
2023-03-29T05:14:47.194Z,13.18
2023-03-29T05:17:14.193Z,13.15
2023-03-29T05:19:41.345Z,11.93
2023-03-29T05:22:08.895Z,12.57
2023-03-29T05:24:36.136Z,13.32
2023-03-29T05:27:03.627Z,13.20
2023-03-29T05:29:32.717Z,13.07
2023-03-29T05:31:59.673Z,12.93
2023-03-29T05:34:26.501Z,13.35
2023-03-29T05:36:53.248Z,13.65
2023-03-29T05:39:19.877Z,15.30
2023-03-29T05:41:46.586Z,14.30
2023-03-29T05:44:13.287Z,14.80
2023-03-29T05:46:39.919Z,14.27
2023-03-29T05:49:06.814Z,15.00
2023-03-29T05:51:33.585Z,13.73
2023-03-29T05:54:00.662Z,14.02
2023-03-29T05:56:27.837Z,16.52
2023-03-29T05:58:56.966Z,15.30
2023-03-29T06:01:24.539Z,14.73
2023-03-29T06:03:51.957Z,14.50
2023-03-29T06:06:18.726Z,15.07
2023-03-29T06:08:46.460Z,17.02
2023-03-29T06:11:13.502Z,15.23
2023-03-29T06:13:42.020Z,15.43
2023-03-29T06:16:10.542Z,16.05
2023-03-29T06:18:40.117Z,16.23
2023-03-29T06:21:09.266Z,15.60
2023-03-29T06:23:36.854Z,14.48
2023-03-29T06:26:04.144Z,14.95
2023-03-29T06:28:30.852Z,14.25
2023-03-29T06:31:02.914Z,14.05
2023-03-29T06:33:32.242Z,15.27
2023-03-29T06:35:59.025Z,15.55
2023-03-29T06:38:28.369Z,14.40
2023-03-29T06:41:06.626Z,16.20
2023-03-29T06:43:34.666Z,14.48
2023-03-29T06:46:01.878Z,15.40
2023-03-29T06:48:29.330Z,14.35
2023-03-29T06:50:56.445Z,14.60
2023-03-29T06:53:23.295Z,14.32
2023-03-29T06:55:51.914Z,14.55
2023-03-29T06:58:18.642Z,13.35
2023-03-29T07:00:45.822Z,14.63
2023-03-29T07:03:19.801Z,12.30
2023-03-29T07:05:47.535Z,12.48
2023-03-29T07:08:16.316Z,12.95
2023-03-29T07:10:45.639Z,11.77
2023-03-29T07:13:13.219Z,12.90
2023-03-29T07:15:41.452Z,13.30
2023-03-29T07:18:14.940Z,10.95
2023-03-29T07:20:42.452Z,11.13
2023-03-29T07:23:09.985Z,10.73
2023-03-29T07:25:37.320Z,12.05
2023-03-29T07:28:04.653Z,10.88
2023-03-29T07:30:32.504Z,11.27
2023-03-29T07:33:00.397Z,12.75
2023-03-29T07:35:28.257Z,10.18
2023-03-29T07:37:55.678Z,11.35
2023-03-29T07:40:26.160Z,11.27
2023-03-29T07:42:57.047Z,10.85
2023-03-29T07:45:27.449Z,9.82
2023-03-29T07:47:57.812Z,10.15
2023-03-29T07:50:25.732Z,11.10
2023-03-29T07:52:52.702Z,11.25
2023-03-29T07:55:19.999Z,10.18
2023-03-29T07:57:46.692Z,11.13
2023-03-29T08:00:17.385Z,9.68
2023-03-29T08:02:45.556Z,10.15
2023-03-29T08:05:15.440Z,10.60
2023-03-29T08:07:46.876Z,9.50
2023-03-29T08:10:16.366Z,8.98
2023-03-29T08:12:43.870Z,10.15
2023-03-29T08:15:11.187Z,9.20
2023-03-29T08:17:38.140Z,9.25
2023-03-29T08:20:06.057Z,9.52
2023-03-29T08:22:33.982Z,9.13
2023-03-29T08:25:00.708Z,8.80
2023-03-29T08:27:27.551Z,9.55
2023-03-29T08:29:54.503Z,9.23
2023-03-29T08:32:21.422Z,9.60
2023-03-29T08:34:48.127Z,9.05
2023-03-29T08:37:15.019Z,9.18
2023-03-29T08:39:41.799Z,7.95
2023-03-29T08:42:23.777Z,9.23
2023-03-29T08:44:53.110Z,8.93
2023-03-29T08:47:37.137Z,7.93
2023-03-29T08:50:04.802Z,7.70
2023-03-29T08:52:38.006Z,8.02
2023-03-29T08:55:19.366Z,8.10
2023-03-29T08:57:48.665Z,8.50
2023-03-29T09:00:33.713Z,7.95
2023-03-29T09:03:02.398Z,9.13
2023-03-29T09:05:44.395Z,8.07
2023-03-29T09:08:17.410Z,8.85
2023-03-29T09:10:48.645Z,7.88
2023-03-29T09:13:21.205Z,7.82
2023-03-29T09:15:56.919Z,8.25
2023-03-29T09:18:38.387Z,8.00
2023-03-29T09:21:16.490Z,7.95
2023-03-29T09:24:15.687Z,8.27
2023-03-29T09:26:49.596Z,8.38
2023-03-29T09:29:46.243Z,7.20
2023-03-29T09:32:29.224Z,8.25
2023-03-29T09:35:14.173Z,7.35
2023-03-29T09:37:41.567Z,7.68
2023-03-29T09:40:17.158Z,7.68
2023-03-29T09:45:11.578Z,7.65
2023-03-29T09:48:02.670Z,7.72
2023-03-29T09:50:40.810Z,7.72
2023-03-29T09:53:08.659Z,7.97
2023-03-29T09:55:37.116Z,7.28
2023-03-29T09:58:23.312Z,8.77
2023-03-29T10:03:25.187Z,9.57
2023-03-29T10:05:54.478Z,8.93
2023-03-29T10:08:28.193Z,8.10
2023-03-29T10:10:57.754Z,7.00
2023-03-29T10:13:33.637Z,7.88
2023-03-29T10:16:07.862Z,9.55
2023-03-29T10:18:40.647Z,10.15
2023-03-29T10:21:12.035Z,7.88
2023-03-29T10:23:38.707Z,8.88
2023-03-29T10:26:18.083Z,10.23
2023-03-29T10:28:45.132Z,10.45
2023-03-29T10:31:18.395Z,9.52
2023-03-29T10:33:51.932Z,9.88
2023-03-29T10:36:19.301Z,10.65
2023-03-29T10:38:47.495Z,9.40
2023-03-29T10:41:15.815Z,11.25
2023-03-29T10:43:49.401Z,9.70
2023-03-29T10:46:27.968Z,10.50
2023-03-29T10:49:10.186Z,10.57
2023-03-29T10:51:37.429Z,10.30
2023-03-29T10:54:05.273Z,10.32
2023-03-29T10:56:45.859Z,9.93
2023-03-29T10:59:47.401Z,9.13
2023-03-29T11:02:14.248Z,8.85
2023-03-29T11:05:12.448Z,9.98
2023-03-29T11:07:56.109Z,10.32
2023-03-29T11:11:02.466Z,9.50
2023-03-29T11:13:49.445Z,8.80
2023-03-29T11:16:49.682Z,9.55
2023-03-29T11:19:31.275Z,8.20
2023-03-29T11:22:39.310Z,9.40
2023-03-29T11:25:15.536Z,10.05
2023-03-29T11:27:48.910Z,8.77
2023-03-29T11:30:57.178Z,8.48
2023-03-29T11:33:27.091Z,8.30
2023-03-29T11:36:17.633Z,9.95
2023-03-29T11:39:16.532Z,9.00
2023-03-29T11:41:48.594Z,9.20
2023-03-29T11:44:34.079Z,7.78
2023-03-29T11:47:09.792Z,8.68
2023-03-29T11:49:53.008Z,8.52
2023-03-29T11:52:34.781Z,8.25
2023-03-29T11:55:23.667Z,8.25
2023-03-29T11:58:09.598Z,8.02
2023-03-29T12:00:41.629Z,7.38
2023-03-29T12:03:46.343Z,7.40
2023-03-29T12:06:47.558Z,8.57
2023-03-29T12:09:34.604Z,7.68
2023-03-29T12:12:10.140Z,7.15
2023-03-29T12:17:18.402Z,9.48
2023-03-29T12:20:12.306Z,9.32
2023-03-29T12:22:40.089Z,8.80
2023-03-29T12:25:11.101Z,8.30
2023-03-29T12:28:10.994Z,7.63
2023-03-29T12:31:05.316Z,7.57
2023-03-29T12:34:07.711Z,7.50
2023-03-29T12:37:08.123Z,8.68
2023-03-29T12:39:36.871Z,7.60
2023-03-29T12:42:14.752Z,8.02
2023-03-29T12:44:46.175Z,8.00
2023-03-29T12:47:21.362Z,7.70
2023-03-29T12:49:56.608Z,10.00
2023-03-29T12:52:34.876Z,8.65
2023-03-29T12:55:04.886Z,8.13
2023-03-29T12:57:59.998Z,7.80
2023-03-29T13:00:50.322Z,8.82
2023-03-29T13:03:53.303Z,8.85
2023-03-29T13:06:53.631Z,9.68
2023-03-29T13:09:28.051Z,8.55
2023-03-29T13:12:11.128Z,9.88
2023-03-29T13:14:42.761Z,9.70
2023-03-29T13:17:48.152Z,7.68
2023-03-29T13:20:23.705Z,9.40
2023-03-29T13:25:38.436Z,10.00
2023-03-29T13:28:11.407Z,9.35
2023-03-29T13:31:05.965Z,9.50
2023-03-29T13:33:48.144Z,9.70
2023-03-29T13:36:42.172Z,9.15
2023-03-29T13:39:19.267Z,9.95
2023-03-29T13:41:49.284Z,8.35
2023-03-29T13:44:22.161Z,11.63
2023-03-29T13:47:00.916Z,8.98
2023-03-29T13:49:31.847Z,9.88
2023-03-29T13:52:28.520Z,10.45
2023-03-29T13:55:00.593Z,10.15
2023-03-29T13:57:42.861Z,8.88
2023-03-29T14:00:36.932Z,9.63
2023-03-29T14:03:12.131Z,9.90
2023-03-29T14:05:42.386Z,11.68
2023-03-29T14:08:16.629Z,9.85
2023-03-29T14:10:45.336Z,10.25
2023-03-29T14:13:14.814Z,10.68
2023-03-29T14:15:45.685Z,11.35
2023-03-29T14:18:16.810Z,9.73
2023-03-29T14:20:46.400Z,10.02
2023-03-29T14:23:20.280Z,10.88
2023-03-29T14:25:47.430Z,9.43
2023-03-29T14:28:21.033Z,11.32
2023-03-29T14:30:48.071Z,9.52
2023-03-29T14:33:14.783Z,9.65
2023-03-29T14:35:41.754Z,10.32
2023-03-29T14:38:12.778Z,10.93
2023-03-29T14:40:39.821Z,10.93
2023-03-29T14:43:08.216Z,10.45
2023-03-29T14:45:35.298Z,10.15
2023-03-29T14:48:02.519Z,9.85
2023-03-29T14:50:30.972Z,10.20
2023-03-29T14:53:00.481Z,9.02
2023-03-29T14:55:27.622Z,10.73
2023-03-29T14:57:55.392Z,10.63
2023-03-29T15:00:30.078Z,10.68
2023-03-29T15:02:59.842Z,11.32
2023-03-29T15:05:40.103Z,10.27
2023-03-29T15:08:13.167Z,9.75
2023-03-29T15:10:42.987Z,9.00
2023-03-29T15:13:21.835Z,8.98
2023-03-29T15:15:55.735Z,7.53
2023-03-29T15:18:30.111Z,8.98
2023-03-29T15:20:56.991Z,8.82
2023-03-29T15:23:25.963Z,8.60
2023-03-29T15:26:07.324Z,8.00
2023-03-29T15:28:35.734Z,8.02
2023-03-29T15:31:18.163Z,9.50
2023-03-29T15:33:45.569Z,8.82
2023-03-29T15:36:14.044Z,9.13
2023-03-29T15:38:44.687Z,8.73
2023-03-29T15:41:13.326Z,9.43
2023-03-29T15:43:41.161Z,8.60
2023-03-29T15:46:08.240Z,9.55
2023-03-29T15:48:35.143Z,8.85
2023-03-29T15:51:04.800Z,9.57
2023-03-29T15:53:33.022Z,9.43
2023-03-29T15:56:02.495Z,8.75
2023-03-29T15:58:32.400Z,9.05
2023-03-29T16:01:23.653Z,9.30
2023-03-29T16:03:51.034Z,8.57
2023-03-29T16:06:18.326Z,9.43
2023-03-29T16:08:45.152Z,9.38
2023-03-29T16:11:12.039Z,9.90
2023-03-29T16:13:38.775Z,10.95
2023-03-29T16:16:06.468Z,10.90
2023-03-29T16:18:33.677Z,8.90
2023-03-29T16:20:27.563Z,12.07
2023-03-29T16:21:00.693Z,9.13
2023-03-29T16:23:27.389Z,8.98
2023-03-29T16:25:54.145Z,9.75
2023-03-29T16:26:44.522Z,9.93
2023-03-29T16:28:21.669Z,8.88
2023-03-29T16:30:01.090Z,9.90
2023-03-29T16:30:48.802Z,9.38
2023-03-29T16:33:15.946Z,10.35
2023-03-29T16:35:42.990Z,9.85
2023-03-29T16:38:09.781Z,9.02
2023-03-29T16:40:36.979Z,10.70
2023-03-29T16:40:51.330Z,10.55
2023-03-29T16:42:15.744Z,10.88
2023-03-29T16:43:04.484Z,12.32
2023-03-29T16:45:31.605Z,9.57
2023-03-29T16:47:58.615Z,10.55
2023-03-29T16:50:25.372Z,10.25
2023-03-29T16:52:52.567Z,11.40
2023-03-29T16:55:19.448Z,11.75
2023-03-29T16:57:37.038Z,13.30
2023-03-29T16:57:47.478Z,11.77
2023-03-29T17:00:16.908Z,11.73
2023-03-29T17:01:31.840Z,12.82
2023-03-29T17:02:44.091Z,13.13
2023-03-29T17:05:12.340Z,12.30
2023-03-29T17:06:21.017Z,15.02
2023-03-29T17:07:39.493Z,12.77
2023-03-29T17:08:48.290Z,12.95
2023-03-29T17:10:11.004Z,12.15
2023-03-29T17:11:16.032Z,14.73
2023-03-29T17:12:37.804Z,13.15
2023-03-29T17:13:43.544Z,14.60
2023-03-29T17:15:07.492Z,13.18
2023-03-29T17:16:11.075Z,14.93
2023-03-29T17:17:34.741Z,12.25
2023-03-29T17:18:38.378Z,14.05
2023-03-29T17:20:01.436Z,13.13
2023-03-29T17:21:05.925Z,14.50
2023-03-29T17:22:28.073Z,13.20
2023-03-29T17:23:33.174Z,13.50
2023-03-29T17:24:54.748Z,12.95
2023-03-29T17:26:00.978Z,15.70
2023-03-29T17:27:21.493Z,13.60
2023-03-29T17:28:28.436Z,14.82
2023-03-29T17:29:48.278Z,14.80
2023-03-29T17:30:55.867Z,16.30
2023-03-29T17:32:14.902Z,12.88
2023-03-29T17:33:26.378Z,15.77
2023-03-29T17:34:41.602Z,14.25
2023-03-29T17:35:53.894Z,15.48
2023-03-29T17:37:09.570Z,15.40
2023-03-29T17:39:37.786Z,14.32
2023-03-29T17:42:05.568Z,14.85
2023-03-29T17:44:33.299Z,17.35
2023-03-29T17:47:00.992Z,16.40
2023-03-29T17:49:28.160Z,15.18
2023-03-29T17:51:55.120Z,14.38
2023-03-29T17:54:22.068Z,14.23
2023-03-29T17:54:35.109Z,17.17
2023-03-29T17:56:48.922Z,15.50
2023-03-29T17:57:04.617Z,16.45
2023-03-29T17:59:15.883Z,15.70
2023-03-29T17:59:34.172Z,18.67
2023-03-29T18:01:42.937Z,15.43
2023-03-29T18:02:05.581Z,17.45
2023-03-29T18:04:09.650Z,15.32
2023-03-29T18:04:33.956Z,20.93
2023-03-29T18:06:36.406Z,14.23
2023-03-29T18:07:01.725Z,17.20
2023-03-29T18:09:03.205Z,14.88
2023-03-29T18:09:36.775Z,19.90
2023-03-29T18:11:30.156Z,15.82
2023-03-29T18:13:59.538Z,15.30
2023-03-29T18:16:26.691Z,15.10
2023-03-29T18:18:53.397Z,15.77
2023-03-29T18:21:20.256Z,17.15
2023-03-29T18:23:48.345Z,16.60
2023-03-29T18:26:16.746Z,15.52
2023-03-29T18:28:48.792Z,15.73
2023-03-29T18:31:15.976Z,15.60
2023-03-29T18:33:42.842Z,16.33
2023-03-29T18:35:33.210Z,21.60
2023-03-29T18:36:12.992Z,15.13
2023-03-29T18:38:00.690Z,18.67
2023-03-29T18:38:42.908Z,15.93
2023-03-29T18:40:28.302Z,19.73
2023-03-29T18:41:12.048Z,16.58
2023-03-29T18:42:55.744Z,18.95
2023-03-29T18:43:39.741Z,15.07
2023-03-29T18:45:23.067Z,19.08
2023-03-29T18:46:08.066Z,14.10
2023-03-29T18:47:50.645Z,17.55
2023-03-29T18:48:38.834Z,15.98
2023-03-29T18:50:18.090Z,17.40
2023-03-29T18:51:07.835Z,14.43
2023-03-29T18:52:47.775Z,20.08
2023-03-29T18:53:35.976Z,14.50
2023-03-29T18:55:15.411Z,20.15
2023-03-29T18:56:04.295Z,15.10
2023-03-29T18:57:42.771Z,20.27
2023-03-29T18:58:31.306Z,14.90
2023-03-29T19:00:14.327Z,18.63
2023-03-29T19:01:05.452Z,15.27
2023-03-29T19:02:42.009Z,20.60
2023-03-29T19:03:34.556Z,15.35
2023-03-29T19:06:02.744Z,15.52
2023-03-29T19:08:29.775Z,15.50
2023-03-29T19:11:05.458Z,14.65
2023-03-29T19:13:32.285Z,15.25
2023-03-29T19:15:59.262Z,14.68
2023-03-29T19:18:26.071Z,15.90
2023-03-29T19:20:54.173Z,18.48
2023-03-29T19:23:22.465Z,17.08
2023-03-29T19:25:57.375Z,19.25
2023-03-29T19:28:25.149Z,19.88
2023-03-29T19:30:52.083Z,24.35
2023-03-29T19:33:18.900Z,21.17
2023-03-29T19:33:19.827Z,28.95
2023-03-29T19:35:46.618Z,30.42
2023-03-29T19:38:13.316Z,25.20
2023-03-29T19:40:40.192Z,22.88
2023-03-29T19:43:06.904Z,18.55
2023-03-29T19:45:33.629Z,16.33
2023-03-29T19:48:03.460Z,18.70
2023-03-29T19:50:31.609Z,17.52
2023-03-29T19:52:58.501Z,18.40
2023-03-29T19:55:26.432Z,16.20
2023-03-29T19:57:53.080Z,17.08
2023-03-29T20:00:11.506Z,21.60
2023-03-29T20:00:24.289Z,18.75
2023-03-29T20:02:52.208Z,20.33
2023-03-29T20:05:18.984Z,20.55
2023-03-29T20:07:45.627Z,19.05
2023-03-29T20:10:12.361Z,19.77
2023-03-29T20:12:17.143Z,20.00
2023-03-29T20:12:39.094Z,19.50
2023-03-29T20:15:06.530Z,20.08
2023-03-29T20:17:35.334Z,19.15
2023-03-29T20:17:59.867Z,24.80
2023-03-29T20:20:08.153Z,18.13
2023-03-29T20:20:31.996Z,27.48
2023-03-29T20:22:34.852Z,18.38
2023-03-29T20:25:01.570Z,18.25
2023-03-29T20:27:29.385Z,17.50
2023-03-29T20:29:56.173Z,18.70
2023-03-29T20:32:23.144Z,19.05
2023-03-29T20:34:49.809Z,18.02
2023-03-29T20:36:06.420Z,25.52
2023-03-29T20:37:16.437Z,21.75
2023-03-29T20:39:43.142Z,21.02
2023-03-29T20:42:09.883Z,20.85
2023-03-29T20:44:36.674Z,20.35
2023-03-29T20:47:04.847Z,20.38
2023-03-29T20:49:39.211Z,20.17
2023-03-29T20:51:28.046Z,24.88
2023-03-29T20:52:08.383Z,21.38
2023-03-29T20:54:02.195Z,28.55
2023-03-29T20:54:37.015Z,21.88
2023-03-29T20:56:30.546Z,26.98
2023-03-29T20:57:05.039Z,21.48
2023-03-29T20:58:58.987Z,26.27
2023-03-29T20:59:31.862Z,22.42
2023-03-29T21:01:27.910Z,25.75
2023-03-29T21:02:00.084Z,21.42
2023-03-29T21:03:55.286Z,26.75
2023-03-29T21:04:28.225Z,22.38
2023-03-29T21:06:24.444Z,29.45
2023-03-29T21:06:56.103Z,21.38
2023-03-29T21:08:52.553Z,28.10
2023-03-29T21:09:25.487Z,23.73
2023-03-29T21:11:21.035Z,27.52
2023-03-29T21:11:52.866Z,25.73
2023-03-29T21:13:48.402Z,27.77
2023-03-29T21:14:21.038Z,25.40
2023-03-29T21:16:16.009Z,27.17
2023-03-29T21:16:49.238Z,27.00
2023-03-29T21:18:43.781Z,28.75
2023-03-29T21:19:16.684Z,25.15
2023-03-29T21:21:12.252Z,30.15
2023-03-29T21:21:44.754Z,24.40
2023-03-29T21:23:39.520Z,30.85
2023-03-29T21:24:13.747Z,23.95
2023-03-29T21:26:07.951Z,27.35
2023-03-29T21:26:41.447Z,23.45
2023-03-29T21:28:35.511Z,30.60
2023-03-29T21:29:08.122Z,24.30
2023-03-29T21:31:06.825Z,29.08
2023-03-29T21:31:34.966Z,24.05
2023-03-29T21:33:34.923Z,28.13
2023-03-29T21:34:01.782Z,24.60
2023-03-29T21:36:02.658Z,29.90
2023-03-29T21:36:28.491Z,25.52
2023-03-29T21:38:30.014Z,28.67
2023-03-29T21:38:55.295Z,25.65
2023-03-29T21:40:58.227Z,30.92
2023-03-29T21:41:22.014Z,26.35
2023-03-29T21:43:25.485Z,30.38
2023-03-29T21:43:50.021Z,24.92
2023-03-29T21:45:52.698Z,33.08
2023-03-29T21:46:16.726Z,25.55
2023-03-29T21:48:19.924Z,30.58
2023-03-29T21:48:43.343Z,25.05
2023-03-29T21:50:51.188Z,33.20
2023-03-29T21:51:10.026Z,24.60
2023-03-29T21:53:18.505Z,32.90
2023-03-29T21:53:36.995Z,25.55
2023-03-29T21:55:45.742Z,32.85
2023-03-29T21:56:04.195Z,25.17
2023-03-29T21:58:12.971Z,31.27
2023-03-29T21:58:31.064Z,25.92
2023-03-29T22:00:40.580Z,31.08
2023-03-29T22:00:57.792Z,25.08
2023-03-29T22:03:07.977Z,32.25
2023-03-29T22:03:24.671Z,24.52
2023-03-29T22:05:35.552Z,30.92
2023-03-29T22:05:59.741Z,26.35
2023-03-29T22:08:04.243Z,27.75
2023-03-29T22:08:26.506Z,25.50
2023-03-29T22:10:32.990Z,27.10
2023-03-29T22:10:58.015Z,25.13
2023-03-29T22:13:01.112Z,29.92
2023-03-29T22:13:26.608Z,25.20
2023-03-29T22:15:29.683Z,27.60
2023-03-29T22:15:58.988Z,24.40
2023-03-29T22:17:59.299Z,26.77
2023-03-29T22:18:27.933Z,23.75
2023-03-29T22:20:27.616Z,30.02
2023-03-29T22:20:54.689Z,25.70
2023-03-29T22:22:55.644Z,28.05
2023-03-29T22:23:21.347Z,23.83
2023-03-29T22:25:24.312Z,29.73
2023-03-29T22:25:48.272Z,24.02
2023-03-29T22:27:51.540Z,26.20
2023-03-29T22:28:14.950Z,24.08
2023-03-29T22:30:19.054Z,27.83
2023-03-29T22:30:41.892Z,22.80
2023-03-29T22:32:46.358Z,26.90
2023-03-29T22:33:08.614Z,23.63
2023-03-29T22:35:13.775Z,26.20
2023-03-29T22:35:36.262Z,21.92
2023-03-29T22:37:42.150Z,26.83
2023-03-29T22:38:02.962Z,21.17
2023-03-29T22:40:10.679Z,26.30
2023-03-29T22:40:33.094Z,19.88
2023-03-29T22:42:38.035Z,24.75
2023-03-29T22:43:00.258Z,20.58
2023-03-29T22:45:06.544Z,23.45
2023-03-29T22:45:27.378Z,20.30
2023-03-29T22:47:35.380Z,25.13
2023-03-29T22:47:54.247Z,21.55
2023-03-29T22:50:02.621Z,24.92
2023-03-29T22:50:21.065Z,19.80
2023-03-29T22:52:29.879Z,24.83
2023-03-29T22:52:47.711Z,21.98
2023-03-29T22:54:57.181Z,24.38
2023-03-29T22:55:14.541Z,19.98
2023-03-29T22:57:24.511Z,24.45
2023-03-29T22:57:41.364Z,19.98
2023-03-29T22:59:51.833Z,24.98
2023-03-29T23:00:10.352Z,18.35
2023-03-29T23:02:19.093Z,25.90
2023-03-29T23:02:37.319Z,19.13
2023-03-29T23:04:47.045Z,26.30
2023-03-29T23:05:04.154Z,19.42
2023-03-29T23:07:14.308Z,21.83
2023-03-29T23:07:30.893Z,20.33
2023-03-29T23:09:41.536Z,23.63
2023-03-29T23:09:57.623Z,20.00
2023-03-29T23:12:09.732Z,22.77
2023-03-29T23:12:24.358Z,20.10
2023-03-29T23:14:37.618Z,24.02
2023-03-29T23:14:52.869Z,19.67
2023-03-29T23:17:04.858Z,24.05
2023-03-29T23:17:19.457Z,19.27
2023-03-29T23:19:32.206Z,24.05
2023-03-29T23:19:46.520Z,18.95
2023-03-29T23:21:59.416Z,22.42
2023-03-29T23:22:13.573Z,19.63
2023-03-29T23:24:26.740Z,22.08
2023-03-29T23:24:40.482Z,19.88
2023-03-29T23:26:55.275Z,23.52
2023-03-29T23:27:07.654Z,19.73
2023-03-29T23:29:22.849Z,23.85
2023-03-29T23:29:34.502Z,19.52
2023-03-29T23:31:50.152Z,20.73
2023-03-29T23:32:01.260Z,19.95
2023-03-29T23:34:18.188Z,21.90
2023-03-29T23:34:27.944Z,18.27
2023-03-29T23:36:45.371Z,21.63
2023-03-29T23:36:54.725Z,18.60
2023-03-29T23:39:12.644Z,20.83
2023-03-29T23:39:22.154Z,18.02
2023-03-29T23:41:42.673Z,19.80
2023-03-29T23:41:49.134Z,17.02
2023-03-29T23:44:10.443Z,19.27
2023-03-29T23:44:15.788Z,17.02
2023-03-29T23:46:37.744Z,18.92
2023-03-29T23:46:42.447Z,17.27
2023-03-29T23:49:05.020Z,21.55
2023-03-29T23:49:09.990Z,14.75
2023-03-29T23:51:34.899Z,19.50
2023-03-29T23:51:36.783Z,14.98
2023-03-29T23:54:02.263Z,18.85
2023-03-29T23:54:03.694Z,15.48
2023-03-29T23:56:29.792Z,18.73
2023-03-29T23:56:30.398Z,13.52
2023-03-29T23:58:57.223Z,13.98
2023-03-29T23:58:57.255Z,17.73
